createdAt,value
2019-05-10T00:04:30.868Z,16.30
2019-05-10T00:07:17.752Z,15.72
2019-05-10T00:09:45.933Z,18.60
2019-05-10T00:12:19.023Z,25.80
2019-05-10T00:14:49.440Z,18.07
2019-05-10T00:17:19.571Z,20.00
2019-05-10T00:19:48.573Z,21.67
2019-05-10T00:22:17.137Z,22.17
2019-05-10T00:25:00.770Z,24.35
2019-05-10T00:27:17.276Z,26.45
2019-05-10T00:29:46.113Z,22.87
2019-05-10T00:32:14.896Z,22.65
2019-05-10T00:34:45.312Z,25.10
2019-05-10T00:37:14.124Z,21.68
2019-05-10T00:39:44.776Z,26.50
2019-05-10T00:42:14.393Z,23.00
2019-05-10T00:44:44.749Z,18.80
2019-05-10T00:47:13.303Z,21.77
2019-05-10T00:49:43.925Z,19.57
2019-05-10T00:52:12.645Z,25.93
2019-05-10T00:54:41.193Z,26.80
2019-05-10T00:57:11.582Z,24.75
2019-05-10T00:59:41.283Z,22.10
2019-05-10T01:02:10.078Z,27.74
2019-05-10T01:04:38.900Z,25.30
2019-05-10T01:07:07.383Z,18.10
2019-05-10T01:09:47.897Z,18.65
2019-05-10T01:12:16.504Z,25.00
2019-05-10T01:14:45.289Z,20.80
2019-05-10T01:17:14.128Z,16.80
2019-05-10T01:19:48.894Z,23.10
2019-05-10T01:22:17.573Z,24.10
2019-05-10T01:24:46.365Z,20.93
2019-05-10T01:27:15.446Z,25.70
2019-05-10T01:29:47.248Z,25.00
2019-05-10T01:32:16.012Z,25.13
2019-05-10T01:34:44.823Z,29.20
2019-05-10T01:37:13.985Z,23.07
2019-05-10T01:39:44.654Z,28.45
2019-05-10T01:42:14.501Z,23.65
2019-05-10T01:44:43.406Z,24.97
2019-05-10T01:47:11.905Z,34.00
2019-05-10T01:49:40.749Z,29.13
2019-05-10T01:52:09.548Z,29.85
2019-05-10T01:54:38.336Z,27.23
2019-05-10T01:57:07.171Z,28.37
2019-05-10T01:59:35.964Z,22.10
2019-05-10T02:02:05.599Z,26.27
2019-05-10T02:04:34.437Z,27.83
2019-05-10T02:07:02.942Z,25.50
2019-05-10T02:09:33.487Z,28.02
2019-05-10T02:12:01.598Z,26.30
2019-05-10T02:14:30.100Z,20.68
2019-05-10T02:16:59.183Z,23.77
2019-05-10T02:19:27.992Z,28.35
2019-05-10T02:21:57.088Z,28.50
2019-05-10T02:24:25.984Z,25.88
2019-05-10T02:26:55.116Z,32.40
2019-05-10T02:29:23.928Z,23.33
2019-05-10T02:31:52.726Z,19.20
2019-05-10T02:34:21.348Z,21.80
2019-05-10T02:36:50.136Z,16.70
2019-05-10T02:39:18.631Z,23.83
2019-05-10T02:41:50.655Z,24.13
2019-05-10T02:44:19.452Z,28.60
2019-05-10T02:46:48.251Z,18.13
2019-05-10T02:49:17.016Z,24.77
2019-05-10T02:51:45.818Z,21.93
2019-05-10T02:54:14.442Z,27.37
2019-05-10T02:56:44.229Z,28.27
2019-05-10T02:59:13.872Z,31.50
2019-05-10T03:01:45.736Z,33.27
2019-05-10T03:04:15.042Z,31.87
2019-05-10T03:06:43.930Z,25.50
2019-05-10T03:09:12.660Z,30.43
2019-05-10T03:11:49.034Z,26.80
2019-05-10T03:14:18.267Z,25.30
2019-05-10T03:16:48.519Z,27.97
2019-05-10T03:19:19.194Z,28.57
2019-05-10T03:21:49.491Z,32.63
2019-05-10T03:24:18.377Z,23.80
2019-05-10T03:26:51.361Z,30.60
2019-05-10T03:29:19.127Z,21.93
2019-05-10T03:31:48.017Z,19.40
2019-05-10T03:34:16.924Z,22.20
2019-05-10T03:36:45.491Z,27.32
2019-05-10T03:39:14.586Z,24.32
2019-05-10T03:41:43.987Z,21.27
2019-05-10T03:44:13.180Z,22.13
2019-05-10T03:46:41.764Z,23.62
2019-05-10T03:49:11.987Z,23.10
2019-05-10T03:51:40.872Z,19.40
2019-05-10T03:54:09.786Z,16.73
2019-05-10T03:56:38.650Z,18.43
2019-05-10T03:59:07.443Z,24.25
2019-05-10T04:01:36.834Z,20.67
2019-05-10T04:04:09.491Z,19.62
2019-05-10T04:06:37.601Z,18.50
2019-05-10T04:09:06.682Z,14.90
2019-05-10T04:11:35.564Z,25.47
2019-05-10T04:14:05.895Z,23.26
2019-05-10T04:16:34.593Z,19.62
2019-05-10T04:19:03.163Z,26.05
2019-05-10T04:21:31.736Z,21.23
2019-05-10T04:24:00.939Z,17.15
2019-05-10T04:26:30.146Z,15.50
2019-05-10T04:28:58.720Z,21.30
2019-05-10T04:31:27.311Z,18.17
2019-05-10T04:33:56.499Z,18.40
2019-05-10T04:36:25.415Z,23.83
2019-05-10T04:38:54.493Z,24.85
2019-05-10T04:41:23.060Z,25.30
2019-05-10T04:43:52.730Z,22.22
2019-05-10T04:46:21.345Z,23.33
2019-05-10T04:48:50.152Z,26.00
2019-05-10T04:51:18.726Z,22.37
2019-05-10T04:53:47.330Z,23.45
2019-05-10T04:56:16.091Z,18.70
2019-05-10T04:58:46.115Z,22.95
2019-05-10T05:01:14.988Z,18.27
2019-05-10T05:03:45.731Z,23.85
2019-05-10T05:06:14.731Z,17.05
2019-05-10T05:08:44.154Z,19.63
2019-05-10T05:11:13.344Z,27.27
2019-05-10T05:13:42.304Z,22.57
2019-05-10T05:16:11.407Z,22.15
2019-05-10T05:18:39.983Z,22.27
2019-05-10T05:21:08.872Z,19.32
2019-05-10T05:23:37.656Z,26.37
2019-05-10T05:26:06.718Z,27.60
2019-05-10T05:28:35.451Z,24.52
2019-05-10T05:31:05.452Z,26.03
2019-05-10T05:33:34.742Z,22.80
2019-05-10T05:36:04.167Z,20.27
2019-05-10T05:38:33.047Z,22.90
2019-05-10T05:41:01.726Z,28.65
2019-05-10T05:43:31.038Z,19.15
2019-05-10T05:46:00.117Z,17.57
2019-05-10T05:48:39.783Z,17.07
2019-05-10T05:51:00.368Z,20.30
2019-05-10T05:53:29.566Z,18.10
2019-05-10T05:56:03.103Z,20.80
2019-05-10T05:58:29.576Z,21.90
2019-05-10T06:00:58.165Z,22.10
2019-05-10T06:03:27.908Z,22.17
2019-05-10T06:05:57.388Z,22.75
2019-05-10T06:08:26.073Z,16.17
2019-05-10T06:10:57.579Z,17.85
2019-05-10T06:13:30.333Z,18.12
2019-05-10T06:15:59.876Z,16.23
2019-05-10T06:18:26.737Z,15.77
2019-05-10T06:20:55.638Z,21.67
2019-05-10T06:23:29.200Z,13.95
2019-05-10T06:25:56.269Z,19.13
2019-05-10T06:28:38.069Z,17.75
2019-05-10T06:30:56.502Z,17.27
2019-05-10T06:33:25.213Z,14.93
2019-05-10T06:35:54.281Z,18.95
2019-05-10T06:38:22.864Z,15.27
2019-05-10T06:40:51.576Z,17.87
2019-05-10T06:43:20.766Z,17.10
2019-05-10T06:45:52.362Z,13.83
2019-05-10T06:48:27.606Z,12.58
2019-05-10T06:50:50.898Z,16.63
2019-05-10T06:53:23.133Z,15.50
2019-05-10T06:55:50.616Z,15.68
2019-05-10T06:58:19.197Z,9.93
2019-05-10T07:00:48.085Z,9.10
2019-05-10T07:03:16.977Z,13.28
2019-05-10T07:05:46.588Z,10.03
2019-05-10T07:08:20.388Z,9.73
2019-05-10T07:10:46.526Z,11.00
2019-05-10T07:13:15.400Z,11.85
2019-05-10T07:15:46.142Z,11.35
2019-05-10T07:18:16.736Z,10.37
2019-05-10T07:20:46.785Z,19.52
2019-05-10T07:23:15.365Z,10.93
2019-05-10T07:25:46.814Z,8.23
2019-05-10T07:28:17.606Z,6.15
2019-05-10T07:30:46.475Z,9.68
2019-05-10T07:33:15.032Z,7.20
2019-05-10T07:35:43.817Z,7.08
2019-05-10T07:38:12.338Z,9.90
2019-05-10T07:40:41.281Z,10.65
2019-05-10T07:43:09.966Z,8.50
2019-05-10T07:45:38.751Z,7.43
2019-05-10T07:48:08.023Z,13.30
2019-05-10T07:50:42.561Z,6.97
2019-05-10T07:53:08.084Z,8.98
2019-05-10T07:55:36.596Z,8.43
2019-05-10T07:58:07.055Z,9.18
2019-05-10T08:00:38.010Z,6.60
2019-05-10T08:03:15.759Z,11.33
2019-05-10T08:05:39.152Z,7.37
2019-05-10T08:08:09.597Z,7.53
2019-05-10T08:10:39.422Z,13.62
2019-05-10T08:13:08.505Z,9.53
2019-05-10T08:15:38.390Z,6.07
2019-05-10T08:18:09.653Z,8.70
2019-05-10T08:20:49.472Z,10.05
2019-05-10T08:23:07.847Z,8.37
2019-05-10T08:25:43.803Z,11.15
2019-05-10T08:28:06.649Z,9.20
2019-05-10T08:30:42.591Z,8.07
2019-05-10T08:33:09.933Z,7.60
2019-05-10T08:35:39.268Z,6.67
2019-05-10T08:38:08.469Z,5.83
2019-05-10T08:40:38.165Z,7.22
2019-05-10T08:43:09.702Z,10.30
2019-05-10T08:45:38.931Z,6.70
2019-05-10T08:48:07.797Z,4.97
2019-05-10T08:50:49.618Z,6.30
2019-05-10T08:53:10.949Z,7.47
2019-05-10T08:55:37.646Z,7.85
2019-05-10T08:58:06.324Z,7.05
2019-05-10T09:00:49.548Z,6.87
2019-05-10T09:03:10.411Z,10.30
2019-05-10T09:05:39.637Z,6.40
2019-05-10T09:08:10.891Z,8.35
2019-05-10T09:10:36.979Z,8.35
2019-05-10T09:13:06.904Z,8.54
2019-05-10T09:15:35.383Z,9.35
2019-05-10T09:18:07.503Z,11.97
2019-05-10T09:20:35.849Z,12.20
2019-05-10T09:23:08.566Z,7.24
2019-05-10T09:25:36.696Z,8.43
2019-05-10T09:28:11.580Z,5.02
2019-05-10T09:30:36.856Z,4.45
2019-05-10T09:33:13.374Z,10.28
2019-05-10T09:35:39.011Z,7.55
2019-05-10T09:38:07.519Z,11.12
2019-05-10T09:40:42.440Z,8.75
2019-05-10T09:43:09.621Z,7.77
2019-05-10T09:45:37.029Z,11.78
2019-05-10T09:48:05.917Z,10.38
2019-05-10T09:50:41.378Z,10.40
2019-05-10T09:53:27.461Z,5.20
2019-05-10T09:56:00.179Z,8.90
2019-05-10T09:58:24.934Z,9.95
2019-05-10T10:01:09.417Z,5.45
2019-05-10T10:03:24.563Z,8.37
2019-05-10T10:05:55.373Z,7.30
2019-05-10T10:08:23.981Z,5.23
2019-05-10T10:10:52.563Z,6.65
2019-05-10T10:13:38.602Z,6.40
2019-05-10T10:15:52.477Z,6.27
2019-05-10T10:18:25.314Z,8.45
2019-05-10T10:20:52.121Z,8.98
2019-05-10T10:23:24.815Z,6.97
2019-05-10T10:25:51.121Z,5.27
2019-05-10T10:28:22.525Z,7.90
2019-05-10T10:30:58.927Z,6.50
2019-05-10T10:33:25.364Z,8.07
2019-05-10T10:35:50.771Z,8.15
2019-05-10T10:38:19.344Z,5.20
2019-05-10T10:40:48.225Z,9.80
2019-05-10T10:43:17.989Z,4.97
2019-05-10T10:45:47.029Z,8.87
2019-05-10T10:48:17.732Z,7.87
2019-05-10T10:50:51.223Z,5.67
2019-05-10T10:53:18.032Z,11.27
2019-05-10T10:55:53.988Z,7.55
2019-05-10T10:58:18.569Z,7.30
2019-05-10T11:00:48.325Z,6.85
2019-05-10T11:03:17.382Z,10.93
2019-05-10T11:05:46.046Z,7.40
2019-05-10T11:08:15.034Z,6.70
2019-05-10T11:10:46.777Z,8.83
2019-05-10T11:13:23.712Z,6.53
2019-05-10T11:15:47.137Z,6.47
2019-05-10T11:18:16.094Z,8.37
2019-05-10T11:20:49.513Z,5.30
2019-05-10T11:23:16.797Z,8.68
2019-05-10T11:25:54.668Z,10.03
2019-05-10T11:28:16.784Z,8.83
2019-05-10T11:30:47.212Z,7.08
2019-05-10T11:33:29.159Z,9.37
2019-05-10T11:35:46.617Z,5.58
2019-05-10T11:38:16.277Z,9.70
2019-05-10T11:40:45.426Z,7.85
2019-05-10T11:43:17.387Z,8.70
2019-05-10T11:45:45.562Z,10.20
2019-05-10T11:48:14.244Z,9.33
2019-05-10T11:50:42.820Z,5.85
2019-05-10T11:53:13.400Z,6.43
2019-05-10T11:55:43.621Z,6.45
2019-05-10T11:59:04.404Z,7.92
2019-05-10T12:00:44.550Z,10.33
2019-05-10T12:03:18.500Z,7.53
2019-05-10T12:05:44.064Z,10.80
2019-05-10T12:08:13.752Z,8.98
2019-05-10T12:10:52.283Z,8.03
2019-05-10T12:13:19.283Z,7.17
2019-05-10T12:15:45.967Z,9.13
2019-05-10T12:18:15.201Z,8.95
2019-05-10T12:20:55.573Z,6.50
2019-05-10T12:23:23.002Z,9.17
2019-05-10T12:26:20.084Z,6.45
2019-05-10T12:28:24.062Z,10.37
2019-05-10T12:30:50.904Z,8.48
2019-05-10T12:33:24.895Z,7.17
2019-05-10T12:35:50.982Z,9.18
2019-05-10T12:38:23.678Z,6.47
2019-05-10T12:40:51.341Z,6.40
2019-05-10T12:43:21.255Z,11.38
2019-05-10T12:45:51.718Z,7.00
2019-05-10T12:48:23.155Z,8.03
2019-05-10T12:50:52.239Z,8.80
2019-05-10T12:53:21.549Z,7.10
2019-05-10T12:55:50.330Z,12.50
2019-05-10T12:58:18.896Z,6.63
2019-05-10T13:00:52.377Z,7.75
2019-05-10T13:03:19.364Z,7.77
2019-05-10T13:05:52.592Z,7.05
2019-05-10T13:08:19.886Z,8.88
2019-05-10T13:10:49.901Z,13.30
2019-05-10T13:13:23.759Z,10.87
2019-05-10T13:15:49.596Z,8.30
2019-05-10T13:18:23.111Z,10.03
2019-05-10T13:20:53.279Z,8.85
2019-05-10T13:23:25.514Z,9.80
2019-05-10T13:25:59.327Z,9.93
2019-05-10T13:28:34.507Z,16.40
2019-05-10T13:31:07.184Z,6.92
2019-05-10T13:36:06.144Z,9.12
2019-05-10T13:38:36.907Z,6.85
2019-05-10T13:41:07.916Z,8.27
2019-05-10T13:43:36.692Z,9.55
2019-05-10T13:46:07.753Z,12.10
2019-05-10T13:48:37.444Z,8.00
2019-05-10T13:51:06.120Z,7.67
2019-05-10T13:53:34.922Z,12.88
2019-05-10T13:56:04.451Z,12.30
2019-05-10T13:58:32.968Z,17.52
2019-05-10T14:01:06.801Z,15.63
2019-05-10T14:03:43.192Z,21.37
2019-05-10T14:06:05.038Z,19.52
2019-05-10T14:08:34.374Z,10.03
2019-05-10T14:11:03.459Z,13.48
2019-05-10T14:13:35.650Z,11.75
2019-05-10T14:16:03.253Z,10.20
2019-05-10T14:18:33.206Z,15.05
2019-05-10T14:21:04.090Z,13.08
2019-05-10T14:23:35.120Z,15.80
2019-05-10T14:26:02.741Z,10.43
2019-05-10T14:28:33.453Z,13.40
2019-05-10T14:31:02.385Z,16.27
2019-05-10T14:33:31.980Z,9.88
2019-05-10T14:36:03.930Z,9.73
2019-05-10T14:38:32.467Z,14.18
2019-05-10T14:41:04.033Z,11.73
2019-05-10T14:43:31.678Z,7.97
2019-05-10T14:46:02.864Z,9.13
2019-05-10T14:48:35.303Z,7.77
2019-05-10T14:51:11.014Z,8.10
2019-05-10T14:53:34.251Z,6.85
2019-05-10T14:56:07.863Z,9.53
2019-05-10T14:58:33.552Z,13.22
2019-05-10T15:01:04.069Z,10.28
2019-05-10T15:03:35.309Z,13.25
2019-05-10T15:06:02.728Z,7.22
2019-05-10T15:08:31.261Z,8.60
2019-05-10T15:11:00.108Z,12.17
2019-05-10T15:13:29.005Z,9.60
2019-05-10T15:15:57.562Z,10.05
2019-05-10T15:18:26.292Z,8.73
2019-05-10T15:20:54.783Z,8.20
2019-05-10T15:23:23.312Z,8.37
2019-05-10T15:25:56.945Z,9.78
2019-05-10T15:28:22.191Z,9.30
2019-05-10T15:30:52.580Z,7.73
2019-05-10T15:33:21.215Z,10.30
2019-05-10T15:35:51.862Z,10.95
2019-05-10T15:38:20.252Z,8.57
2019-05-10T15:40:48.725Z,8.70
2019-05-10T15:43:18.998Z,9.38
2019-05-10T15:45:52.471Z,10.05
2019-05-10T15:48:17.910Z,9.10
2019-05-10T15:50:46.396Z,10.88
2019-05-10T15:53:22.982Z,9.18
2019-05-10T15:55:45.547Z,22.07
2019-05-10T15:58:14.354Z,17.17
2019-05-10T16:00:45.464Z,20.57
2019-05-10T16:03:13.962Z,21.73
2019-05-10T16:05:44.196Z,23.15
2019-05-10T16:08:13.843Z,16.70
2019-05-10T16:10:46.920Z,15.30
2019-05-10T16:13:23.270Z,11.53
2019-05-10T16:15:51.675Z,21.23
2019-05-10T16:18:17.503Z,10.90
2019-05-10T16:20:46.301Z,13.40
2019-05-10T16:23:15.383Z,13.90
2019-05-10T16:25:48.553Z,13.70
2019-05-10T16:28:20.907Z,18.93
2019-05-10T16:30:47.125Z,20.80
2019-05-10T16:33:18.136Z,20.95
2019-05-10T16:35:49.668Z,18.92
2019-05-10T16:38:16.441Z,16.70
2019-05-10T16:40:57.473Z,19.97
2019-05-10T16:43:22.113Z,21.50
2019-05-10T16:45:47.579Z,18.65
2019-05-10T16:48:16.205Z,16.70
2019-05-10T16:50:45.500Z,15.40
2019-05-10T16:53:14.321Z,12.47
2019-05-10T16:55:43.110Z,12.57
2019-05-10T16:58:15.127Z,15.20
2019-05-10T17:00:48.630Z,14.98
2019-05-10T17:03:18.538Z,23.40
2019-05-10T17:05:53.655Z,14.60
2019-05-10T17:08:18.421Z,12.97
2019-05-10T17:10:50.041Z,15.20
2019-05-10T17:13:36.434Z,11.18
2019-05-10T17:16:20.740Z,13.08
2019-05-10T17:18:59.719Z,21.23
2019-05-10T17:24:44.873Z,16.67
2019-05-10T17:27:29.910Z,13.80
2019-05-10T17:30:13.586Z,15.13
2019-05-10T17:33:04.083Z,15.53
2019-05-10T17:35:42.241Z,16.42
2019-05-10T17:38:37.665Z,14.45
2019-05-10T17:41:10.866Z,23.55
2019-05-10T17:43:54.637Z,16.90
2019-05-10T17:46:21.114Z,19.73
2019-05-10T17:48:49.735Z,21.55
2019-05-10T17:51:18.557Z,24.18
2019-05-10T17:53:47.569Z,25.97
2019-05-10T17:56:16.637Z,23.85
2019-05-10T17:58:45.245Z,20.55
2019-05-10T18:01:14.450Z,24.12
2019-05-10T18:03:45.270Z,26.97
2019-05-10T18:06:23.672Z,22.20
2019-05-10T18:08:44.585Z,22.30
2019-05-10T18:11:13.461Z,21.68
2019-05-10T18:13:42.597Z,16.90
2019-05-10T18:16:13.286Z,22.10
2019-05-10T18:18:46.754Z,19.75
2019-05-10T18:21:21.666Z,18.67
2019-05-10T18:23:47.225Z,16.80
2019-05-10T18:26:16.027Z,26.47
2019-05-10T18:28:45.012Z,25.00
2019-05-10T18:31:13.890Z,19.27
2019-05-10T18:33:44.879Z,18.65
2019-05-10T18:36:13.110Z,18.90
2019-05-10T18:38:41.690Z,21.15
2019-05-10T18:41:11.843Z,23.43
2019-05-10T18:43:42.834Z,18.73
2019-05-10T18:46:11.544Z,24.73
2019-05-10T18:48:40.112Z,25.82
2019-05-10T18:51:09.117Z,26.53
2019-05-10T18:53:37.696Z,22.10
2019-05-10T18:56:09.029Z,24.67
2019-05-10T18:58:37.632Z,20.92
2019-05-10T19:01:06.872Z,24.85
2019-05-10T19:03:35.604Z,26.62
2019-05-10T19:06:10.918Z,29.73
2019-05-10T19:08:44.373Z,24.05
2019-05-10T19:11:15.986Z,26.60
2019-05-10T19:13:51.226Z,30.10
2019-05-10T19:16:16.427Z,27.37
2019-05-10T19:18:47.119Z,32.27
2019-05-10T19:21:16.509Z,33.92
2019-05-10T19:23:52.282Z,40.63
2019-05-10T19:26:23.786Z,35.08
2019-05-10T19:28:52.864Z,33.67
2019-05-10T19:31:22.101Z,32.47
2019-05-10T19:34:08.999Z,28.98
2019-05-10T19:36:39.825Z,24.03
2019-05-10T19:39:10.958Z,25.23
2019-05-10T19:41:42.052Z,28.32
2019-05-10T19:44:10.707Z,31.00
2019-05-10T19:46:45.646Z,28.73
2019-05-10T19:49:17.515Z,34.95
2019-05-10T19:51:48.774Z,36.45
2019-05-10T19:54:21.071Z,32.23
2019-05-10T19:56:48.803Z,31.73
2019-05-10T19:59:17.646Z,33.20
2019-05-10T20:01:47.419Z,31.53
2019-05-10T20:04:18.182Z,37.48
2019-05-10T20:06:46.776Z,33.28
2019-05-10T20:09:18.549Z,37.25
2019-05-10T20:11:47.472Z,32.13
2019-05-10T20:14:17.000Z,26.53
2019-05-10T20:16:52.848Z,32.67
2019-05-10T20:19:20.855Z,34.43
2019-05-10T20:21:51.136Z,32.83
2019-05-10T20:24:20.003Z,32.80
2019-05-10T20:26:49.634Z,30.43
2019-05-10T20:29:18.437Z,28.52
2019-05-10T20:31:47.121Z,31.95
2019-05-10T20:34:28.063Z,30.90
2019-05-10T20:36:55.175Z,28.92
2019-05-10T20:39:24.344Z,33.15
2019-05-10T20:41:53.210Z,27.03
2019-05-10T20:44:21.747Z,26.33
2019-05-10T20:46:50.754Z,30.35
2019-05-10T20:49:19.256Z,27.23
2019-05-10T20:51:48.128Z,24.67
2019-05-10T20:54:17.041Z,32.85
2019-05-10T20:56:45.948Z,23.55
2019-05-10T20:59:16.084Z,24.83
2019-05-10T21:01:44.923Z,22.20
2019-05-10T21:04:14.451Z,26.63
2019-05-10T21:06:43.125Z,24.55
2019-05-10T21:09:12.437Z,27.00
2019-05-10T21:11:41.104Z,22.65
2019-05-10T21:14:10.118Z,21.65
2019-05-10T21:16:39.246Z,22.95
2019-05-10T21:19:07.782Z,20.60
2019-05-10T21:21:36.632Z,23.02
2019-05-10T21:24:07.001Z,24.38
2019-05-10T21:26:35.871Z,26.23
2019-05-10T21:29:05.775Z,28.98
2019-05-10T21:31:34.842Z,24.20
2019-05-10T21:34:09.778Z,29.25
2019-05-10T21:36:33.560Z,23.98
2019-05-10T21:39:02.116Z,30.32
2019-05-10T21:41:32.112Z,31.62
2019-05-10T21:44:01.185Z,28.73
2019-05-10T21:46:29.695Z,27.32
2019-05-10T21:48:58.176Z,30.12
2019-05-10T21:51:26.707Z,30.25
2019-05-10T21:53:56.931Z,30.43
2019-05-10T21:56:25.721Z,28.15
2019-05-10T21:58:54.216Z,30.97
2019-05-10T22:01:23.119Z,32.35
2019-05-10T22:03:51.981Z,27.82
2019-05-10T22:06:20.521Z,26.73
2019-05-10T22:08:49.972Z,26.25
2019-05-10T22:11:18.887Z,27.17
2019-05-10T22:13:47.871Z,29.57
2019-05-10T22:16:16.862Z,29.98
2019-05-10T22:18:48.211Z,34.05
2019-05-10T22:21:17.124Z,29.00
2019-05-10T22:23:47.536Z,26.93
2019-05-10T22:26:16.028Z,24.67
2019-05-10T22:28:47.427Z,33.33
2019-05-10T22:31:16.064Z,28.50
2019-05-10T22:33:44.942Z,31.17
2019-05-10T22:36:13.460Z,28.00
2019-05-10T22:38:42.325Z,27.57
2019-05-10T22:41:11.350Z,33.10
2019-05-10T22:43:40.184Z,26.63
2019-05-10T22:46:09.153Z,30.53
2019-05-10T22:48:37.710Z,25.92
2019-05-10T22:51:06.702Z,29.10
2019-05-10T22:53:35.287Z,29.60
2019-05-10T22:56:03.992Z,30.37
2019-05-10T22:58:32.860Z,31.83
2019-05-10T23:01:01.444Z,30.30
2019-05-10T23:03:30.026Z,30.85
2019-05-10T23:05:59.122Z,26.75
2019-05-10T23:08:28.017Z,27.10
2019-05-10T23:10:58.135Z,25.57
2019-05-10T23:13:26.911Z,30.32
2019-05-10T23:15:56.002Z,30.08
2019-05-10T23:18:24.998Z,28.83
2019-05-10T23:20:54.198Z,29.98
2019-05-10T23:23:22.777Z,27.33
2019-05-10T23:25:51.358Z,26.23
2019-05-10T23:28:20.371Z,24.67
2019-05-10T23:30:49.257Z,27.67
2019-05-10T23:33:18.126Z,25.97
2019-05-10T23:35:46.927Z,26.97
2019-05-10T23:38:15.928Z,26.62
2019-05-10T23:40:47.377Z,29.20
2019-05-10T23:43:15.948Z,28.20
2019-05-10T23:45:46.668Z,29.00
2019-05-10T23:48:15.188Z,30.53
2019-05-10T23:50:44.719Z,30.80
2019-05-10T23:53:13.335Z,32.63
2019-05-10T23:55:41.930Z,29.50
2019-05-10T23:58:10.937Z,26.48
